Time;durP1;ratioP1;P1;durP2;ratioP2;P2;SDS_P1;SDS_P2;PMS_P1;PMS_P2;Temp;Humidity;BMP_temperature;BMP_pressure;BME280_temperature;BME280_humidity;BME280_pressure;Samples;Min_cycle;Max_cycle;Signal;HPM_P1;HPM_P2
2020/12/06 00:01:36;;;;;;;34.57;30.77;;;;;;;;;;5034978;28;20448;-61
2020/12/06 00:04:04;;;;;;;31.70;28.30;;;;;;;;;;5035281;28;20455;-61
2020/12/06 00:06:31;;;;;;;35.27;30.27;;;;;;;;;;5034796;28;20447;-61
2020/12/06 00:08:57;;;;;;;37.60;31.30;;;;;;;;;;5035942;28;20897;-60
2020/12/06 00:11:24;;;;;;;35.40;31.70;;;;;;;;;;5035801;28;20456;-61
2020/12/06 00:13:50;;;;;;;36.80;31.93;;;;;;;;;;5035175;28;20467;-64
2020/12/06 00:16:19;;;;;;;34.13;30.50;;;;;;;;;;5034894;28;20483;-61
2020/12/06 00:18:46;;;;;;;34.20;30.00;;;;;;;;;;5035441;28;20817;-61
2020/12/06 00:21:13;;;;;;;35.43;31.43;;;;;;;;;;5035052;28;20479;-61
2020/12/06 00:23:39;;;;;;;35.90;30.50;;;;;;;;;;5034473;28;20451;-61
2020/12/06 00:26:06;;;;;;;36.80;32.77;;;;;;;;;;5034839;28;20459;-61
2020/12/06 00:28:33;;;;;;;35.93;32.00;;;;;;;;;;5035073;28;20453;-61
2020/12/06 00:31:00;;;;;;;35.80;30.60;;;;;;;;;;5036561;28;20995;-61
2020/12/06 00:33:27;;;;;;;35.87;31.40;;;;;;;;;;5034745;28;20543;-61
2020/12/06 00:35:54;;;;;;;39.10;31.73;;;;;;;;;;5018790;28;20991;-61
2020/12/06 00:38:20;;;;;;;37.93;30.50;;;;;;;;;;5035088;28;20445;-61
2020/12/06 00:40:47;;;;;;;34.90;30.20;;;;;;;;;;5034236;28;20793;-60
2020/12/06 00:43:14;;;;;;;33.60;29.23;;;;;;;;;;5034365;28;20452;-62
2020/12/06 00:45:40;;;;;;;36.13;32.20;;;;;;;;;;5034399;28;20455;-61
2020/12/06 00:48:07;;;;;;;36.70;31.63;;;;;;;;;;5035045;28;20842;-62
2020/12/06 00:50:35;;;;;;;35.73;31.90;;;;;;;;;;5037866;28;20548;-63
2020/12/06 00:53:01;;;;;;;36.80;31.47;;;;;;;;;;5034683;28;20453;-59
2020/12/06 00:55:28;;;;;;;36.40;30.10;;;;;;;;;;5033787;28;20455;-61
2020/12/06 00:57:54;;;;;;;34.40;30.67;;;;;;;;;;5034800;28;20547;-61
2020/12/06 01:00:21;;;;;;;36.13;31.83;;;;;;;;;;5033553;28;20480;-61
2020/12/06 01:02:48;;;;;;;35.70;29.43;;;;;;;;;;5033839;28;20962;-64
2020/12/06 01:05:14;;;;;;;34.47;30.70;;;;;;;;;;5033626;28;20449;-61
2020/12/06 01:07:45;;;;;;;32.73;29.13;;;;;;;;;;5034606;28;20445;-61
2020/12/06 01:10:12;;;;;;;34.70;29.70;;;;;;;;;;5049531;28;20488;-61
2020/12/06 01:12:39;;;;;;;32.47;28.97;;;;;;;;;;5047601;28;20448;-61
2020/12/06 01:15:07;;;;;;;33.67;29.93;;;;;;;;;;5033749;28;20457;-61
2020/12/06 01:17:33;;;;;;;35.10;30.13;;;;;;;;;;5033989;28;20488;-61
2020/12/06 01:20:00;;;;;;;33.63;30.03;;;;;;;;;;5033946;28;20995;-62
2020/12/06 01:22:26;;;;;;;33.13;29.53;;;;;;;;;;5045310;28;20449;-60
2020/12/06 01:24:54;;;;;;;33.70;29.90;;;;;;;;;;5033888;28;20449;-60
2020/12/06 01:27:20;;;;;;;32.70;28.97;;;;;;;;;;5034061;28;20468;-63
2020/12/06 01:29:47;;;;;;;33.17;29.70;;;;;;;;;;5033526;28;20481;-61
2020/12/06 01:32:14;;;;;;;37.77;29.60;;;;;;;;;;5033712;28;20452;-61
2020/12/06 01:34:40;;;;;;;32.80;28.57;;;;;;;;;;5037828;28;20445;-64
2020/12/06 01:37:07;;;;;;;33.20;29.63;;;;;;;;;;5047386;28;20487;-61
2020/12/06 01:39:33;;;;;;;36.80;30.23;;;;;;;;;;5039081;28;20975;-61
2020/12/06 01:42:01;;;;;;;31.97;28.57;;;;;;;;;;5033595;28;20459;-61
2020/12/06 01:44:28;;;;;;;33.10;28.60;;;;;;;;;;5027139;28;20448;-61
2020/12/06 01:46:55;;;;;;;31.47;27.90;;;;;;;;;;5033759;28;20453;-64
2020/12/06 01:49:22;;;;;;;32.80;27.40;;;;;;;;;;5033413;28;20843;-61
2020/12/06 01:51:52;;;;;;;32.90;28.80;;;;;;;;;;5033885;28;20441;-62
2020/12/06 01:54:19;;;;;;;33.70;29.17;;;;;;;;;;5032928;28;20480;-64
2020/12/06 01:56:45;;;;;;;34.60;30.67;;;;;;;;;;5033466;28;20499;-61
2020/12/06 01:59:13;;;;;;;34.00;28.80;;;;;;;;;;5032802;28;20476;-63
2020/12/06 02:01:39;;;;;;;34.13;30.03;;;;;;;;;;5033572;28;20447;-60
2020/12/06 02:04:06;;;;;;;31.93;28.43;;;;;;;;;;5032775;28;20474;-60
2020/12/06 02:06:33;;;;;;;31.57;27.80;;;;;;;;;;5033434;28;20448;-63
2020/12/06 02:08:59;;;;;;;32.23;28.77;;;;;;;;;;5033344;28;20967;-62
2020/12/06 02:11:30;;;;;;;29.73;25.80;;;;;;;;;;5033143;28;20464;-60
2020/12/06 02:13:56;;;;;;;30.97;27.57;;;;;;;;;;5031892;28;20457;-61
2020/12/06 02:16:24;;;;;;;33.33;29.50;;;;;;;;;;5044303;28;20479;-60
2020/12/06 02:18:50;;;;;;;31.23;27.57;;;;;;;;;;5044772;28;20449;-61
2020/12/06 02:21:18;;;;;;;36.47;28.63;;;;;;;;;;5033141;28;20952;-61
2020/12/06 02:23:44;;;;;;;33.43;29.80;;;;;;;;;;5032598;28;20456;-60
2020/12/06 02:26:11;;;;;;;32.33;28.73;;;;;;;;;;5033105;28;20451;-60
2020/12/06 02:28:38;;;;;;;33.10;29.50;;;;;;;;;;5033616;28;20448;-62
2020/12/06 02:31:04;;;;;;;32.83;28.97;;;;;;;;;;5038300;28;20511;-59
2020/12/06 02:33:31;;;;;;;32.43;28.63;;;;;;;;;;5032421;28;20490;-61
2020/12/06 02:35:57;;;;;;;33.23;29.63;;;;;;;;;;5032237;28;20448;-61
2020/12/06 02:38:25;;;;;;;32.37;28.80;;;;;;;;;;5032256;28;20459;-61
2020/12/06 02:40:52;;;;;;;30.73;27.30;;;;;;;;;;5032381;28;20468;-60
2020/12/06 02:43:18;;;;;;;32.10;28.70;;;;;;;;;;5031668;28;20452;-61
2020/12/06 02:45:45;;;;;;;31.60;27.50;;;;;;;;;;5032662;28;20448;-61
2020/12/06 02:48:11;;;;;;;29.90;26.23;;;;;;;;;;5032225;28;20455;-60
2020/12/06 02:50:38;;;;;;;32.87;29.33;;;;;;;;;;5044628;28;20476;-60
2020/12/06 02:53:06;;;;;;;28.57;25.63;;;;;;;;;;5048744;28;20453;-64
2020/12/06 02:55:34;;;;;;;29.83;26.00;;;;;;;;;;5012049;28;20504;-60
2020/12/06 02:58:01;;;;;;;31.00;27.60;;;;;;;;;;5020385;28;20900;-60
2020/12/06 03:00:27;;;;;;;30.13;26.20;;;;;;;;;;5032122;28;20968;-60
2020/12/06 03:02:54;;;;;;;28.83;25.07;;;;;;;;;;5031867;28;20457;-60
2020/12/06 03:05:21;;;;;;;30.80;27.47;;;;;;;;;;5040400;28;20869;-61
2020/12/06 03:07:48;;;;;;;30.43;27.20;;;;;;;;;;5046407;28;20944;-61
2020/12/06 03:10:14;;;;;;;29.03;25.90;;;;;;;;;;5032273;28;20491;-63
2020/12/06 03:12:42;;;;;;;31.00;27.70;;;;;;;;;;5031820;28;20799;-61
2020/12/06 03:15:08;;;;;;;32.90;28.47;;;;;;;;;;5032417;28;21084;-59
2020/12/06 03:17:35;;;;;;;29.93;26.83;;;;;;;;;;5031365;28;21018;-62
2020/12/06 03:20:02;;;;;;;32.23;28.70;;;;;;;;;;5031797;28;20468;-61
2020/12/06 03:22:32;;;;;;;34.10;30.40;;;;;;;;;;5031533;28;20453;-60
2020/12/06 03:24:59;;;;;;;30.70;27.47;;;;;;;;;;5037212;28;20555;-60
2020/12/06 03:27:25;;;;;;;32.77;28.03;;;;;;;;;;5054975;28;20460;-62
2020/12/06 03:29:53;;;;;;;29.70;26.20;;;;;;;;;;5038214;28;20476;-61
2020/12/06 03:32:19;;;;;;;31.70;27.60;;;;;;;;;;5038392;28;20448;-62
2020/12/06 03:34:46;;;;;;;32.03;28.73;;;;;;;;;;5037800;28;20960;-65
2020/12/06 03:37:13;;;;;;;35.00;28.87;;;;;;;;;;5037586;28;20489;-61
2020/12/06 03:39:39;;;;;;;30.93;27.63;;;;;;;;;;5038527;28;20474;-63
2020/12/06 03:42:06;;;;;;;31.63;28.23;;;;;;;;;;5037968;28;20444;-62
2020/12/06 03:44:33;;;;;;;34.23;27.67;;;;;;;;;;5038158;28;20479;-61
2020/12/06 03:47:00;;;;;;;32.57;28.23;;;;;;;;;;5050969;28;20452;-64
2020/12/06 03:49:27;;;;;;;29.67;26.67;;;;;;;;;;5038804;28;20558;-61
2020/12/06 03:51:53;;;;;;;33.23;29.73;;;;;;;;;;5038337;28;20449;-65
2020/12/06 03:54:20;;;;;;;33.03;29.37;;;;;;;;;;5018731;28;20441;-62
2020/12/06 03:56:47;;;;;;;31.10;27.67;;;;;;;;;;5018679;28;20485;-63
2020/12/06 03:59:13;;;;;;;31.70;28.13;;;;;;;;;;5037999;28;21021;-61
2020/12/06 04:01:40;;;;;;;32.17;28.20;;;;;;;;;;5044533;28;20447;-62
2020/12/06 04:04:07;;;;;;;31.30;28.20;;;;;;;;;;5038046;28;20452;-61
2020/12/06 04:06:34;;;;;;;36.77;32.97;;;;;;;;;;5037939;28;20807;-62
2020/12/06 04:09:00;;;;;;;37.10;33.30;;;;;;;;;;5037507;28;20457;-61
2020/12/06 04:11:27;;;;;;;34.30;30.90;;;;;;;;;;5037978;28;20445;-61
2020/12/06 04:13:54;;;;;;;34.63;31.23;;;;;;;;;;5037331;28;20456;-61
2020/12/06 04:16:20;;;;;;;34.80;31.50;;;;;;;;;;5037505;28;20480;-62
2020/12/06 04:18:47;;;;;;;37.97;34.20;;;;;;;;;;5037080;28;20463;-61
2020/12/06 04:21:14;;;;;;;37.80;33.70;;;;;;;;;;5037589;28;21007;-61
2020/12/06 04:23:41;;;;;;;37.50;33.50;;;;;;;;;;5038193;28;20955;-61
2020/12/06 04:26:07;;;;;;;38.10;34.10;;;;;;;;;;5037791;28;20444;-60
2020/12/06 04:28:34;;;;;;;40.13;36.00;;;;;;;;;;5037148;28;20807;-60
2020/12/06 04:31:01;;;;;;;38.60;34.60;;;;;;;;;;5037288;28;20484;-62
2020/12/06 04:33:27;;;;;;;40.13;35.87;;;;;;;;;;5037929;28;20456;-62
2020/12/06 04:35:54;;;;;;;38.50;34.63;;;;;;;;;;5035274;28;20448;-62
2020/12/06 04:38:21;;;;;;;39.57;35.47;;;;;;;;;;5043449;28;20501;-62
2020/12/06 04:40:48;;;;;;;38.87;34.97;;;;;;;;;;5040322;28;20996;-61
2020/12/06 04:43:15;;;;;;;39.40;35.20;;;;;;;;;;5034119;28;20463;-62
2020/12/06 04:45:42;;;;;;;35.57;32.00;;;;;;;;;;5034380;28;20644;-62
2020/12/06 04:48:09;;;;;;;35.57;31.80;;;;;;;;;;5034331;28;20452;-62
2020/12/06 04:50:37;;;;;;;40.07;36.03;;;;;;;;;;5034663;28;20460;-62
2020/12/06 04:53:05;;;;;;;35.60;32.10;;;;;;;;;;5043543;28;20460;-61
2020/12/06 04:55:33;;;;;;;38.90;34.93;;;;;;;;;;5052898;28;20456;-62
2020/12/06 04:58:00;;;;;;;38.63;34.80;;;;;;;;;;5036548;28;20987;-61
2020/12/06 05:00:31;;;;;;;39.23;35.13;;;;;;;;;;5053984;28;20471;-62
2020/12/06 05:03:00;;;;;;;37.97;34.10;;;;;;;;;;5047428;28;20940;-61
2020/12/06 05:05:32;;;;;;;35.37;31.57;;;;;;;;;;5033410;28;20445;-62
2020/12/06 05:08:01;;;;;;;37.83;34.13;;;;;;;;;;5034036;28;20449;-62
2020/12/06 05:10:28;;;;;;;35.30;31.70;;;;;;;;;;5034146;28;20461;-62
2020/12/06 05:12:56;;;;;;;36.70;33.00;;;;;;;;;;5033326;28;20449;-62
2020/12/06 05:15:22;;;;;;;35.67;32.00;;;;;;;;;;5040083;28;20453;-62
2020/12/06 05:17:49;;;;;;;35.93;32.43;;;;;;;;;;5033722;28;20476;-62
2020/12/06 05:20:16;;;;;;;37.50;33.70;;;;;;;;;;5033636;28;20479;-62
2020/12/06 05:22:45;;;;;;;36.63;32.83;;;;;;;;;;5033504;28;20453;-62
2020/12/06 05:25:12;;;;;;;37.77;33.97;;;;;;;;;;5033294;28;20464;-62
2020/12/06 05:27:38;;;;;;;37.50;33.53;;;;;;;;;;5032756;28;20455;-62
2020/12/06 05:30:06;;;;;;;36.53;32.77;;;;;;;;;;5033535;28;20568;-62
2020/12/06 05:32:33;;;;;;;35.00;31.50;;;;;;;;;;5033212;28;20468;-62
2020/12/06 05:35:00;;;;;;;37.07;33.20;;;;;;;;;;5034225;28;20519;-62
2020/12/06 05:37:27;;;;;;;38.17;34.17;;;;;;;;;;5033140;28;20484;-62
2020/12/06 05:40:01;;;;;;;38.33;34.40;;;;;;;;;;5033844;28;20464;-62
2020/12/06 05:42:27;;;;;;;35.33;31.83;;;;;;;;;;5033347;28;20444;-62
2020/12/06 05:44:56;;;;;;;37.77;33.90;;;;;;;;;;5032651;28;20472;-62
2020/12/06 05:47:23;;;;;;;38.80;34.50;;;;;;;;;;5032840;28;20456;-62
2020/12/06 05:49:50;;;;;;;39.13;35.07;;;;;;;;;;5033180;28;20472;-62
2020/12/06 05:52:18;;;;;;;38.97;33.77;;;;;;;;;;5032807;28;20460;-62
2020/12/06 05:54:45;;;;;;;37.10;33.20;;;;;;;;;;5032711;28;20503;-62
2020/12/06 05:57:12;;;;;;;39.70;35.40;;;;;;;;;;5035037;28;20484;-62
2020/12/06 05:59:39;;;;;;;36.37;32.70;;;;;;;;;;5033173;28;20468;-61
2020/12/06 06:02:06;;;;;;;39.20;35.10;;;;;;;;;;5032546;28;20449;-62
2020/12/06 06:04:37;;;;;;;37.50;33.50;;;;;;;;;;5032381;28;20457;-61
2020/12/06 06:07:04;;;;;;;38.40;34.30;;;;;;;;;;5032141;28;20453;-62
2020/12/06 06:09:31;;;;;;;39.10;35.07;;;;;;;;;;5032770;28;20472;-62
2020/12/06 06:12:07;;;;;;;38.23;34.30;;;;;;;;;;5045804;28;20455;-62
2020/12/06 06:14:34;;;;;;;39.17;34.90;;;;;;;;;;5050137;28;20440;-62
2020/12/06 06:17:01;;;;;;;39.10;34.90;;;;;;;;;;5033681;28;20485;-62
2020/12/06 06:19:27;;;;;;;38.73;34.53;;;;;;;;;;5032898;28;20468;-62
2020/12/06 06:21:55;;;;;;;35.97;32.20;;;;;;;;;;5032817;28;20483;-62
2020/12/06 06:24:24;;;;;;;40.70;35.53;;;;;;;;;;5031920;28;20440;-62
2020/12/06 06:26:51;;;;;;;38.87;34.90;;;;;;;;;;5025111;28;20449;-62
2020/12/06 06:29:18;;;;;;;39.20;34.97;;;;;;;;;;5031990;28;20488;-63
2020/12/06 06:31:46;;;;;;;36.40;32.43;;;;;;;;;;5040705;28;20470;-63
2020/12/06 06:34:12;;;;;;;40.27;36.17;;;;;;;;;;5045384;28;20457;-63
2020/12/06 06:36:39;;;;;;;40.83;36.30;;;;;;;;;;5032156;28;20492;-63
2020/12/06 06:39:06;;;;;;;39.80;35.57;;;;;;;;;;5032177;28;20461;-63
2020/12/06 06:41:33;;;;;;;41.17;36.73;;;;;;;;;;5032218;28;20452;-62
2020/12/06 06:44:01;;;;;;;41.10;36.77;;;;;;;;;;5031913;28;20448;-62
2020/12/06 06:46:31;;;;;;;38.80;35.00;;;;;;;;;;5033489;28;20464;-62
2020/12/06 06:48:59;;;;;;;37.43;33.60;;;;;;;;;;5035744;28;20483;-62
2020/12/06 06:51:25;;;;;;;41.47;37.07;;;;;;;;;;5032031;28;20804;-62
2020/12/06 06:53:56;;;;;;;40.20;36.23;;;;;;;;;;5031586;28;20816;-62
2020/12/06 06:56:23;;;;;;;40.20;36.10;;;;;;;;;;5031493;28;20456;-62
2020/12/06 06:58:50;;;;;;;42.63;38.13;;;;;;;;;;5031838;28;20445;-62
2020/12/06 07:01:21;;;;;;;41.77;36.50;;;;;;;;;;5031526;28;20467;-62
2020/12/06 07:03:48;;;;;;;41.13;36.83;;;;;;;;;;5034330;28;20449;-62
2020/12/06 07:06:33;;;;;;;39.40;35.27;;;;;;;;;;5031852;28;20456;-62
2020/12/06 07:09:00;;;;;;;40.63;36.33;;;;;;;;;;5031786;28;20451;-62
2020/12/06 07:11:28;;;;;;;41.33;36.90;;;;;;;;;;5031446;28;20952;-62
2020/12/06 07:13:55;;;;;;;42.97;38.33;;;;;;;;;;5031450;28;20452;-62
2020/12/06 07:16:21;;;;;;;46.13;39.60;;;;;;;;;;5034528;28;20449;-62
2020/12/06 07:18:48;;;;;;;43.90;39.20;;;;;;;;;;5031775;28;20452;-62
2020/12/06 07:21:15;;;;;;;44.53;39.77;;;;;;;;;;5031399;28;20456;-62
2020/12/06 07:23:41;;;;;;;44.53;39.30;;;;;;;;;;5031785;28;20448;-61
2020/12/06 07:26:08;;;;;;;17.53;10.03;;;;;;;;;;5031433;28;20956;-63
2020/12/06 07:28:36;;;;;;;12.70;11.03;;;;;;;;;;5031112;28;20456;-62
2020/12/06 07:31:02;;;;;;;15.07;11.50;;;;;;;;;;5038807;28;20484;-63
2020/12/06 07:33:29;;;;;;;15.63;12.37;;;;;;;;;;5031573;28;20453;-62
2020/12/06 07:35:56;;;;;;;13.37;10.37;;;;;;;;;;5031212;28;20964;-62
2020/12/06 07:38:22;;;;;;;12.43;10.83;;;;;;;;;;5031513;28;20489;-63
2020/12/06 07:40:49;;;;;;;11.73;9.87;;;;;;;;;;5031545;28;20503;-63
2020/12/06 07:43:15;;;;;;;12.00;10.80;;;;;;;;;;5031859;28;20729;-62
2020/12/06 07:45:43;;;;;;;11.80;10.70;;;;;;;;;;5031466;28;20463;-62
2020/12/06 07:48:19;;;;;;;11.17;10.10;;;;;;;;;;5027384;28;20487;-63
2020/12/06 07:50:46;;;;;;;12.30;11.20;;;;;;;;;;5028994;28;20853;-64
2020/12/06 07:53:13;;;;;;;11.37;10.17;;;;;;;;;;5031213;28;20666;-65
2020/12/06 07:55:41;;;;;;;10.93;9.40;;;;;;;;;;5029976;28;20990;-65
2020/12/06 07:58:11;;;;;;;10.93;9.83;;;;;;;;;;5029433;28;20488;-65
2020/12/06 08:00:39;;;;;;;12.33;11.17;;;;;;;;;;5028756;28;20484;-64
2020/12/06 08:03:07;;;;;;;11.53;10.33;;;;;;;;;;5030646;28;20857;-65
2020/12/06 08:05:34;;;;;;;10.60;9.50;;;;;;;;;;5030507;28;20463;-65
2020/12/06 08:08:03;;;;;;;11.70;10.50;;;;;;;;;;5030543;28;20665;-65
2020/12/06 08:10:30;;;;;;;13.80;9.73;;;;;;;;;;5033172;28;20484;-65
2020/12/06 08:12:57;;;;;;;11.03;9.93;;;;;;;;;;5034136;28;20841;-66
2020/12/06 08:15:24;;;;;;;9.33;8.50;;;;;;;;;;5033393;28;20838;-65
2020/12/06 08:17:51;;;;;;;9.87;8.87;;;;;;;;;;5034843;28;20845;-64
2020/12/06 08:20:21;;;;;;;31.43;12.10;;;;;;;;;;5030543;28;21011;-64
2020/12/06 08:22:52;;;;;;;12.67;9.90;;;;;;;;;;5033969;28;20469;-65
2020/12/06 08:25:20;;;;;;;14.37;12.53;;;;;;;;;;5032068;28;20461;-64
2020/12/06 08:27:47;;;;;;;14.97;10.43;;;;;;;;;;5029392;28;20456;-65
2020/12/06 08:30:14;;;;;;;11.50;10.37;;;;;;;;;;5031622;28;20495;-66
2020/12/06 08:32:41;;;;;;;12.93;10.10;;;;;;;;;;5032396;28;20468;-66
2020/12/06 08:35:08;;;;;;;11.73;10.53;;;;;;;;;;5033870;28;20451;-65
2020/12/06 08:37:36;;;;;;;13.17;11.33;;;;;;;;;;5033152;28;20488;-66
2020/12/06 08:40:04;;;;;;;12.17;10.47;;;;;;;;;;5033589;28;20847;-66
2020/12/06 08:42:31;;;;;;;12.03;10.87;;;;;;;;;;5033047;28;20906;-65
2020/12/06 08:44:59;;;;;;;11.97;10.87;;;;;;;;;;5033857;28;20452;-66
2020/12/06 08:47:26;;;;;;;25.23;19.10;;;;;;;;;;5033079;28;20948;-67
2020/12/06 08:50:03;;;;;;;33.87;22.80;;;;;;;;;;5033296;28;20488;-70
2020/12/06 08:52:30;;;;;;;19.47;16.00;;;;;;;;;;5033654;28;20468;-66
2020/12/06 08:54:58;;;;;;;15.47;13.13;;;;;;;;;;5031773;28;20465;-66
2020/12/06 08:57:26;;;;;;;15.90;13.50;;;;;;;;;;5031156;28;20527;-65
2020/12/06 08:59:52;;;;;;;15.40;12.70;;;;;;;;;;5030681;28;20894;-65
2020/12/06 09:02:23;;;;;;;14.60;11.70;;;;;;;;;;5030095;28;20457;-65
2020/12/06 09:04:50;;;;;;;18.10;12.07;;;;;;;;;;5014154;28;20488;-65
2020/12/06 09:07:16;;;;;;;16.07;11.43;;;;;;;;;;5019523;28;20933;-65
2020/12/06 09:09:43;;;;;;;12.70;11.37;;;;;;;;;;5034197;28;20464;-65
2020/12/06 09:12:11;;;;;;;12.97;11.57;;;;;;;;;;5031571;28;20465;-65
2020/12/06 09:14:37;;;;;;;10.97;9.63;;;;;;;;;;5033699;28;20444;-66
2020/12/06 09:17:04;;;;;;;11.80;10.60;;;;;;;;;;5031416;28;20901;-66
2020/12/06 09:19:31;;;;;;;11.97;10.70;;;;;;;;;;5035146;28;20488;-64
2020/12/06 09:21:57;;;;;;;10.67;9.67;;;;;;;;;;5032782;28;20477;-66
2020/12/06 09:24:24;;;;;;;14.73;10.50;;;;;;;;;;5029172;28;20478;-66
2020/12/06 09:26:51;;;;;;;13.00;11.37;;;;;;;;;;5043077;28;21080;-66
2020/12/06 09:29:18;;;;;;;13.20;10.50;;;;;;;;;;5032193;28;20486;-66
2020/12/06 09:31:45;;;;;;;11.57;10.47;;;;;;;;;;5033466;28;20449;-66
2020/12/06 09:34:12;;;;;;;11.60;10.40;;;;;;;;;;5021545;28;20476;-65
2020/12/06 09:36:42;;;;;;;11.37;10.23;;;;;;;;;;5032600;28;20574;-65
2020/12/06 09:39:08;;;;;;;11.13;10.13;;;;;;;;;;5033405;28;20452;-65
2020/12/06 09:41:35;;;;;;;10.87;9.77;;;;;;;;;;5029387;28;20475;-66
2020/12/06 09:44:05;;;;;;;11.07;10.07;;;;;;;;;;5041343;28;20459;-66
2020/12/06 09:46:32;;;;;;;10.27;9.27;;;;;;;;;;5031800;28;20472;-65
2020/12/06 09:48:59;;;;;;;10.87;9.77;;;;;;;;;;5032497;28;20839;-65
2020/12/06 09:51:25;;;;;;;11.50;10.40;;;;;;;;;;5027397;28;20469;-65
2020/12/06 09:53:52;;;;;;;10.93;9.83;;;;;;;;;;5031554;28;20975;-65
2020/12/06 09:56:19;;;;;;;11.60;10.50;;;;;;;;;;5029263;28;20469;-65
2020/12/06 09:58:45;;;;;;;11.27;10.10;;;;;;;;;;5033076;28;20861;-66
2020/12/06 10:01:12;;;;;;;10.87;9.73;;;;;;;;;;5032465;28;20484;-65
2020/12/06 10:03:39;;;;;;;11.03;9.93;;;;;;;;;;5031763;28;20841;-65
2020/12/06 10:06:06;;;;;;;13.93;12.53;;;;;;;;;;5031721;28;20473;-66
2020/12/06 10:08:32;;;;;;;11.50;10.40;;;;;;;;;;5032378;28;20469;-65
2020/12/06 10:10:59;;;;;;;12.20;11.00;;;;;;;;;;5032293;28;20479;-65
2020/12/06 10:13:26;;;;;;;12.67;11.47;;;;;;;;;;5032080;28;20477;-65
2020/12/06 10:15:52;;;;;;;12.20;11.10;;;;;;;;;;5031930;28;20449;-65
2020/12/06 10:18:19;;;;;;;12.87;11.60;;;;;;;;;;5033586;28;20488;-65
2020/12/06 10:20:46;;;;;;;12.17;11.07;;;;;;;;;;5031304;28;20498;-65
2020/12/06 10:23:13;;;;;;;12.37;11.07;;;;;;;;;;5030940;28;20472;-65
2020/12/06 10:25:39;;;;;;;13.40;11.43;;;;;;;;;;5031340;28;20469;-65
2020/12/06 10:28:06;;;;;;;13.27;12.00;;;;;;;;;;5029372;28;20464;-65
2020/12/06 10:30:33;;;;;;;14.93;12.80;;;;;;;;;;5031461;28;20480;-65
2020/12/06 10:32:59;;;;;;;15.70;12.60;;;;;;;;;;5031975;28;20449;-66
2020/12/06 10:35:26;;;;;;;12.33;11.20;;;;;;;;;;5030756;28;20460;-66
2020/12/06 10:37:53;;;;;;;12.87;11.67;;;;;;;;;;5033210;28;20485;-65
2020/12/06 10:40:20;;;;;;;13.40;12.10;;;;;;;;;;5032793;28;21015;-66
2020/12/06 10:42:48;;;;;;;14.07;12.60;;;;;;;;;;5031905;28;20459;-66
2020/12/06 10:45:15;;;;;;;14.67;13.27;;;;;;;;;;5033237;28;20468;-66
2020/12/06 10:47:41;;;;;;;14.47;13.07;;;;;;;;;;5032454;28;20469;-66
2020/12/06 10:50:08;;;;;;;13.50;12.20;;;;;;;;;;5032889;28;20852;-65
2020/12/06 10:52:34;;;;;;;13.50;12.10;;;;;;;;;;5032288;28;20464;-66
2020/12/06 10:55:02;;;;;;;13.40;12.03;;;;;;;;;;5031855;28;20960;-66
2020/12/06 10:57:29;;;;;;;13.00;11.67;;;;;;;;;;5030743;28;20484;-66
2020/12/06 10:59:55;;;;;;;13.40;12.07;;;;;;;;;;5033376;28;20469;-65
2020/12/06 11:02:22;;;;;;;14.70;13.30;;;;;;;;;;5031556;28;20471;-66
2020/12/06 11:04:48;;;;;;;14.90;13.50;;;;;;;;;;5032421;28;20457;-66
2020/12/06 11:07:15;;;;;;;13.30;11.90;;;;;;;;;;5029449;28;20486;-66
2020/12/06 11:09:42;;;;;;;14.67;13.27;;;;;;;;;;5031403;28;20471;-66
2020/12/06 11:12:09;;;;;;;13.93;12.50;;;;;;;;;;5032949;28;20452;-66
2020/12/06 11:14:36;;;;;;;14.60;13.20;;;;;;;;;;5032030;28;20967;-66
2020/12/06 11:17:02;;;;;;;14.07;12.77;;;;;;;;;;5032385;28;20460;-66
2020/12/06 11:19:29;;;;;;;14.63;13.20;;;;;;;;;;5032487;28;20469;-65
2020/12/06 11:21:55;;;;;;;15.57;13.97;;;;;;;;;;5027442;28;20468;-66
2020/12/06 11:24:22;;;;;;;14.77;13.37;;;;;;;;;;5031113;28;20836;-66
2020/12/06 11:26:49;;;;;;;14.03;12.70;;;;;;;;;;5031686;28;20470;-66
2020/12/06 11:29:16;;;;;;;14.67;13.27;;;;;;;;;;5034479;28;21017;-66
2020/12/06 11:31:43;;;;;;;12.90;11.70;;;;;;;;;;5030960;28;21003;-66
2020/12/06 11:34:09;;;;;;;15.17;13.67;;;;;;;;;;5031234;28;20449;-66
2020/12/06 11:36:36;;;;;;;14.67;13.20;;;;;;;;;;5031386;28;20846;-66
2020/12/06 11:39:03;;;;;;;15.47;13.87;;;;;;;;;;5026497;28;20476;-66
2020/12/06 11:41:29;;;;;;;15.73;14.23;;;;;;;;;;5032248;28;20457;-66
2020/12/06 11:43:56;;;;;;;13.80;12.50;;;;;;;;;;5030111;28;20480;-66
2020/12/06 11:46:23;;;;;;;15.73;13.70;;;;;;;;;;5043728;28;20806;-64
2020/12/06 11:48:50;;;;;;;15.00;13.50;;;;;;;;;;5037730;28;20830;-64
2020/12/06 11:51:19;;;;;;;15.90;14.30;;;;;;;;;;5036612;28;20444;-64
2020/12/06 11:53:45;;;;;;;15.10;13.50;;;;;;;;;;5037561;28;20460;-65
2020/12/06 11:56:13;;;;;;;15.60;13.63;;;;;;;;;;5033668;28;20491;-65
2020/12/06 11:58:40;;;;;;;14.60;13.17;;;;;;;;;;5035539;28;20484;-66
2020/12/06 12:01:07;;;;;;;14.97;13.57;;;;;;;;;;5035305;28;20476;-66
2020/12/06 12:03:34;;;;;;;14.73;13.30;;;;;;;;;;5034688;28;20445;-66
2020/12/06 12:06:01;;;;;;;15.87;14.27;;;;;;;;;;5034907;28;20857;-66
2020/12/06 12:08:27;;;;;;;14.77;13.17;;;;;;;;;;5035380;28;20451;-66
2020/12/06 12:10:54;;;;;;;14.93;13.43;;;;;;;;;;5034420;28;21031;-66
2020/12/06 12:13:20;;;;;;;14.40;12.97;;;;;;;;;;5035297;28;20448;-65
2020/12/06 12:15:47;;;;;;;13.60;12.27;;;;;;;;;;5034614;28;20968;-66
2020/12/06 12:18:14;;;;;;;13.90;12.57;;;;;;;;;;5035386;28;20487;-66
2020/12/06 12:20:41;;;;;;;15.27;13.77;;;;;;;;;;5034394;28;20851;-66
2020/12/06 12:23:08;;;;;;;14.93;13.53;;;;;;;;;;5035005;28;20456;-66
2020/12/06 12:25:34;;;;;;;14.53;13.20;;;;;;;;;;5034153;28;20459;-66
2020/12/06 12:28:01;;;;;;;15.10;13.60;;;;;;;;;;5035195;28;20452;-66
2020/12/06 12:30:28;;;;;;;15.57;12.90;;;;;;;;;;5034281;28;21020;-66
2020/12/06 12:32:54;;;;;;;33.03;30.13;;;;;;;;;;5035186;28;20449;-66
2020/12/06 12:35:21;;;;;;;37.73;34.30;;;;;;;;;;5034050;28;20828;-64
2020/12/06 12:37:48;;;;;;;38.83;35.13;;;;;;;;;;5034619;28;20477;-66
2020/12/06 12:40:15;;;;;;;39.73;35.57;;;;;;;;;;5034547;28;20476;-64
2020/12/06 12:42:42;;;;;;;38.20;34.20;;;;;;;;;;5034904;28;20456;-63
2020/12/06 12:45:08;;;;;;;38.93;35.00;;;;;;;;;;5033728;28;20448;-62
2020/12/06 12:47:37;;;;;;;39.50;35.20;;;;;;;;;;5036973;28;20452;-61
2020/12/06 12:50:04;;;;;;;40.23;36.13;;;;;;;;;;5034606;28;20477;-62
2020/12/06 12:52:30;;;;;;;39.73;35.63;;;;;;;;;;5034735;28;20830;-61
2020/12/06 12:54:58;;;;;;;32.80;23.67;;;;;;;;;;5034392;28;20463;-62
2020/12/06 12:57:24;;;;;;;40.87;36.40;;;;;;;;;;5041471;28;21020;-61
2020/12/06 12:59:51;;;;;;;39.67;35.60;;;;;;;;;;5047799;28;20560;-61
2020/12/06 13:02:18;;;;;;;41.50;37.10;;;;;;;;;;5034670;28;20452;-61
2020/12/06 13:04:44;;;;;;;42.47;38.20;;;;;;;;;;5034381;28;20459;-63
2020/12/06 13:07:11;;;;;;;42.80;37.50;;;;;;;;;;5034282;28;20971;-61
2020/12/06 13:09:37;;;;;;;43.00;38.50;;;;;;;;;;5037202;28;20482;-62
2020/12/06 13:12:05;;;;;;;40.17;36.00;;;;;;;;;;5028955;28;20456;-60
2020/12/06 13:14:31;;;;;;;42.90;38.43;;;;;;;;;;5033690;28;20448;-61
2020/12/06 13:16:58;;;;;;;41.33;36.83;;;;;;;;;;5033808;28;20978;-60
2020/12/06 13:19:25;;;;;;;40.53;36.47;;;;;;;;;;5034053;28;20571;-62
2020/12/06 13:21:54;;;;;;;41.83;37.53;;;;;;;;;;5033987;28;20455;-61
2020/12/06 13:24:21;;;;;;;42.43;38.13;;;;;;;;;;5036513;28;20970;-62
2020/12/06 13:26:51;;;;;;;42.00;37.67;;;;;;;;;;5036620;28;20445;-61
2020/12/06 13:29:18;;;;;;;43.87;39.47;;;;;;;;;;5034170;28;20472;-61
2020/12/06 13:31:45;;;;;;;42.70;38.43;;;;;;;;;;5034258;28;20453;-63
2020/12/06 13:34:11;;;;;;;43.77;39.30;;;;;;;;;;5033571;28;20968;-61
2020/12/06 13:36:38;;;;;;;43.53;38.93;;;;;;;;;;5034125;28;20448;-60
2020/12/06 13:39:05;;;;;;;42.30;36.90;;;;;;;;;;5033545;28;20488;-60
2020/12/06 13:41:31;;;;;;;42.47;37.90;;;;;;;;;;5033608;28;20459;-61
2020/12/06 13:43:58;;;;;;;42.33;37.73;;;;;;;;;;5033585;28;20451;-61
2020/12/06 13:46:25;;;;;;;43.93;39.43;;;;;;;;;;5033795;28;20453;-61
2020/12/06 13:48:52;;;;;;;43.77;39.20;;;;;;;;;;5033437;28;20449;-61
2020/12/06 13:51:18;;;;;;;42.77;38.27;;;;;;;;;;5033687;28;20448;-60
2020/12/06 13:53:45;;;;;;;43.57;39.07;;;;;;;;;;5033308;28;20448;-61
2020/12/06 13:56:12;;;;;;;43.40;39.00;;;;;;;;;;5033944;28;20448;-61
2020/12/06 13:58:38;;;;;;;42.90;38.40;;;;;;;;;;5032703;28;20480;-61
2020/12/06 14:01:05;;;;;;;42.22;37.72;;;;;;;;;;5032325;28;20456;-60
2020/12/06 14:03:32;;;;;;;40.63;36.38;;;;;;;;;;5032342;28;20461;-61
2020/12/06 14:05:59;;;;;;;44.20;39.67;;;;;;;;;;5032918;28;20232;-60
2020/12/06 14:08:25;;;;;;;46.33;41.50;;;;;;;;;;5033021;28;20453;-61
2020/12/06 14:10:52;;;;;;;45.63;40.83;;;;;;;;;;5033448;28;20491;-62
2020/12/06 14:13:20;;;;;;;45.27;40.43;;;;;;;;;;5033571;28;20464;-61
2020/12/06 14:15:47;;;;;;;44.17;39.60;;;;;;;;;;5033159;28;20453;-62
2020/12/06 14:18:13;;;;;;;44.53;40.00;;;;;;;;;;5032782;28;20576;-61